sensor_id;sensor_type;location;lat;lon;timestamp;pressure;altitude;pressure_sealevel;temperature;humidity
64967;BME280;51710;38.732;-121.358;2022-11-15T00:00:55;101550.97;;;15.23;49.05
64967;BME280;51710;38.732;-121.358;2022-11-15T00:03:23;101547.59;;;15.21;49.03
64967;BME280;51710;38.732;-121.358;2022-11-15T00:05:50;101556.97;;;15.17;48.79
64967;BME280;51710;38.732;-121.358;2022-11-15T00:08:17;101561.16;;;15.12;48.37
64967;BME280;51710;38.732;-121.358;2022-11-15T00:10:54;101544.06;;;15.05;48.79
64967;BME280;51710;38.732;-121.358;2022-11-15T00:13:21;101548.41;;;14.98;48.30
64967;BME280;51710;38.732;-121.358;2022-11-15T00:15:48;101543.72;;;14.92;48.79
64967;BME280;51710;38.732;-121.358;2022-11-15T00:18:15;101550.41;;;14.88;48.91
64967;BME280;51710;38.732;-121.358;2022-11-15T00:20:43;101545.53;;;14.83;48.68
64967;BME280;51710;38.732;-121.358;2022-11-15T00:23:11;101552.56;;;14.76;49.13
64967;BME280;51710;38.732;-121.358;2022-11-15T00:25:38;101551.38;;;14.71;49.32
64967;BME280;51710;38.732;-121.358;2022-11-15T00:28:05;101547.50;;;14.65;49.28
64967;BME280;51710;38.732;-121.358;2022-11-15T00:30:32;101548.16;;;14.59;49.79
64967;BME280;51710;38.732;-121.358;2022-11-15T00:33:05;101551.66;;;14.51;49.77
64967;BME280;51710;38.732;-121.358;2022-11-15T00:35:33;101553.63;;;14.41;50.43
64967;BME280;51710;38.732;-121.358;2022-11-15T00:38:01;101551.91;;;14.32;50.77
64967;BME280;51710;38.732;-121.358;2022-11-15T00:40:28;101556.53;;;14.22;50.91
64967;BME280;51710;38.732;-121.358;2022-11-15T00:42:55;101556.78;;;14.11;51.04
64967;BME280;51710;38.732;-121.358;2022-11-15T00:45:22;101561.28;;;14.03;51.38
64967;BME280;51710;38.732;-121.358;2022-11-15T00:47:48;101551.34;;;13.95;51.58
64967;BME280;51710;38.732;-121.358;2022-11-15T00:50:15;101558.66;;;13.85;51.66
64967;BME280;51710;38.732;-121.358;2022-11-15T00:52:42;101560.13;;;13.80;51.83
64967;BME280;51710;38.732;-121.358;2022-11-15T00:55:18;101559.91;;;13.73;51.90
64967;BME280;51710;38.732;-121.358;2022-11-15T00:57:46;101556.88;;;13.68;51.99
64967;BME280;51710;38.732;-121.358;2022-11-15T01:00:14;101556.34;;;13.65;52.43
64967;BME280;51710;38.732;-121.358;2022-11-15T01:02:41;101556.94;;;13.58;52.31
64967;BME280;51710;38.732;-121.358;2022-11-15T01:05:08;101553.91;;;13.53;52.43
64967;BME280;51710;38.732;-121.358;2022-11-15T01:07:35;101550.84;;;13.48;52.62
64967;BME280;51710;38.732;-121.358;2022-11-15T01:10:03;101556.69;;;13.44;52.81
64967;BME280;51710;38.732;-121.358;2022-11-15T01:12:29;101558.84;;;13.40;52.92
64967;BME280;51710;38.732;-121.358;2022-11-15T01:14:56;101554.94;;;13.35;52.91
64967;BME280;51710;38.732;-121.358;2022-11-15T01:17:24;101555.00;;;13.25;53.19
64967;BME280;51710;38.732;-121.358;2022-11-15T01:19:51;101559.28;;;13.18;53.23
64967;BME280;51710;38.732;-121.358;2022-11-15T01:22:18;101566.25;;;13.11;53.37
64967;BME280;51710;38.732;-121.358;2022-11-15T01:24:45;101569.53;;;13.05;53.77
64967;BME280;51710;38.732;-121.358;2022-11-15T01:27:11;101575.75;;;12.96;53.69
64967;BME280;51710;38.732;-121.358;2022-11-15T01:29:38;101571.63;;;12.84;53.82
64967;BME280;51710;38.732;-121.358;2022-11-15T01:32:05;101576.22;;;12.74;54.36
64967;BME280;51710;38.732;-121.358;2022-11-15T01:34:32;101581.44;;;12.66;54.65
64967;BME280;51710;38.732;-121.358;2022-11-15T01:36:58;101585.84;;;12.58;54.66
64967;BME280;51710;38.732;-121.358;2022-11-15T01:39:26;101580.28;;;12.51;54.61
64967;BME280;51710;38.732;-121.358;2022-11-15T01:41:53;101587.03;;;12.45;54.89
64967;BME280;51710;38.732;-121.358;2022-11-15T01:47:00;101592.31;;;12.28;55.36
64967;BME280;51710;38.732;-121.358;2022-11-15T01:49:30;101595.16;;;12.17;55.03
64967;BME280;51710;38.732;-121.358;2022-11-15T01:51:59;101597.88;;;12.07;55.46
64967;BME280;51710;38.732;-121.358;2022-11-15T01:54:27;101592.28;;;12.01;55.54
64967;BME280;51710;38.732;-121.358;2022-11-15T01:57:01;101592.28;;;11.91;56.29
64967;BME280;51710;38.732;-121.358;2022-11-15T01:59:30;101589.53;;;11.83;56.00
64967;BME280;51710;38.732;-121.358;2022-11-15T02:01:57;101592.50;;;11.71;56.43
64967;BME280;51710;38.732;-121.358;2022-11-15T02:04:30;101597.66;;;11.63;56.45
64967;BME280;51710;38.732;-121.358;2022-11-15T02:06:58;101605.53;;;11.55;56.50
64967;BME280;51710;38.732;-121.358;2022-11-15T02:09:25;101594.72;;;11.47;56.81
64967;BME280;51710;38.732;-121.358;2022-11-15T02:11:52;101599.66;;;11.42;56.99
64967;BME280;51710;38.732;-121.358;2022-11-15T02:14:21;101598.69;;;11.33;57.51
64967;BME280;51710;38.732;-121.358;2022-11-15T02:17:01;101603.69;;;11.26;57.39
64967;BME280;51710;38.732;-121.358;2022-11-15T02:19:40;101607.22;;;11.17;57.83
64967;BME280;51710;38.732;-121.358;2022-11-15T02:22:45;101607.34;;;11.06;58.32
64967;BME280;51710;38.732;-121.358;2022-11-15T02:28:39;101608.84;;;10.80;59.10
64967;BME280;51710;38.732;-121.358;2022-11-15T02:37:11;101619.72;;;10.58;59.23
64967;BME280;51710;38.732;-121.358;2022-11-15T02:42:33;101613.50;;;10.48;60.05
64967;BME280;51710;38.732;-121.358;2022-11-15T02:45:24;101621.34;;;10.40;59.77
64967;BME280;51710;38.732;-121.358;2022-11-15T02:47:56;101618.81;;;10.39;60.33
64967;BME280;51710;38.732;-121.358;2022-11-15T02:50:27;101622.19;;;10.41;60.13
64967;BME280;51710;38.732;-121.358;2022-11-15T02:52:55;101624.97;;;10.39;60.13
64967;BME280;51710;38.732;-121.358;2022-11-15T02:55:41;101625.38;;;10.35;60.85
64967;BME280;51710;38.732;-121.358;2022-11-15T03:01:31;101620.09;;;10.14;60.81
64967;BME280;51710;38.732;-121.358;2022-11-15T03:10:24;101628.38;;;10.00;60.63
64967;BME280;51710;38.732;-121.358;2022-11-15T03:12:59;101630.16;;;9.90;61.12
64967;BME280;51710;38.732;-121.358;2022-11-15T03:15:40;101636.25;;;9.81;61.01
64967;BME280;51710;38.732;-121.358;2022-11-15T03:21:12;101633.44;;;9.62;61.73
64967;BME280;51710;38.732;-121.358;2022-11-15T03:23:41;101636.47;;;9.57;61.83
64967;BME280;51710;38.732;-121.358;2022-11-15T03:26:12;101637.59;;;9.55;62.09
64967;BME280;51710;38.732;-121.358;2022-11-15T03:28:49;101637.84;;;9.52;62.04
64967;BME280;51710;38.732;-121.358;2022-11-15T03:31:19;101639.94;;;9.48;62.28
64967;BME280;51710;38.732;-121.358;2022-11-15T03:34:09;101642.34;;;9.40;61.90
64967;BME280;51710;38.732;-121.358;2022-11-15T03:36:40;101632.00;;;9.37;62.48
64967;BME280;51710;38.732;-121.358;2022-11-15T03:39:08;101635.88;;;9.33;62.51
64967;BME280;51710;38.732;-121.358;2022-11-15T03:44:35;101640.41;;;9.10;62.67
64967;BME280;51710;38.732;-121.358;2022-11-15T03:47:29;101639.47;;;9.00;63.20
64967;BME280;51710;38.732;-121.358;2022-11-15T03:50:19;101643.00;;;8.90;63.02
64967;BME280;51710;38.732;-121.358;2022-11-15T03:52:48;101640.59;;;8.87;63.13
64967;BME280;51710;38.732;-121.358;2022-11-15T03:55:19;101648.69;;;8.85;63.52
64967;BME280;51710;38.732;-121.358;2022-11-15T03:57:49;101649.03;;;8.81;63.60
64967;BME280;51710;38.732;-121.358;2022-11-15T04:00:16;101655.22;;;8.70;63.64
64967;BME280;51710;38.732;-121.358;2022-11-15T04:02:43;101657.91;;;8.59;63.98
64967;BME280;51710;38.732;-121.358;2022-11-15T04:05:10;101656.91;;;8.49;63.94
64967;BME280;51710;38.732;-121.358;2022-11-15T04:07:37;101664.78;;;8.40;64.46
64967;BME280;51710;38.732;-121.358;2022-11-15T04:10:05;101666.09;;;8.34;64.75
64967;BME280;51710;38.732;-121.358;2022-11-15T04:12:39;101669.81;;;8.32;65.14
64967;BME280;51710;38.732;-121.358;2022-11-15T04:15:10;101669.19;;;8.28;65.08
64967;BME280;51710;38.732;-121.358;2022-11-15T04:17:42;101666.28;;;8.20;64.95
64967;BME280;51710;38.732;-121.358;2022-11-15T04:20:15;101664.59;;;8.08;65.19
64967;BME280;51710;38.732;-121.358;2022-11-15T04:23:02;101664.78;;;7.94;65.84
64967;BME280;51710;38.732;-121.358;2022-11-15T04:25:49;101665.72;;;7.82;66.03
64967;BME280;51710;38.732;-121.358;2022-11-15T04:28:17;101667.88;;;7.77;65.89
64967;BME280;51710;38.732;-121.358;2022-11-15T04:30:45;101664.63;;;7.73;66.52
64967;BME280;51710;38.732;-121.358;2022-11-15T04:33:12;101670.16;;;7.70;66.59
64967;BME280;51710;38.732;-121.358;2022-11-15T04:35:42;101671.97;;;7.70;66.85
64967;BME280;51710;38.732;-121.358;2022-11-15T04:38:10;101671.72;;;7.73;66.68
64967;BME280;51710;38.732;-121.358;2022-11-15T04:40:37;101671.59;;;7.74;66.75
64967;BME280;51710;38.732;-121.358;2022-11-15T04:43:04;101670.53;;;7.77;66.93
64967;BME280;51710;38.732;-121.358;2022-11-15T04:45:31;101674.88;;;7.78;66.72
64967;BME280;51710;38.732;-121.358;2022-11-15T04:47:58;101688.84;;;7.80;66.65
64967;BME280;51710;38.732;-121.358;2022-11-15T04:50:24;101676.34;;;7.82;66.68
64967;BME280;51710;38.732;-121.358;2022-11-15T04:52:53;101678.25;;;7.80;66.88
64967;BME280;51710;38.732;-121.358;2022-11-15T04:55:20;101676.56;;;7.79;67.04
64967;BME280;51710;38.732;-121.358;2022-11-15T04:57:48;101681.75;;;7.80;66.95
64967;BME280;51710;38.732;-121.358;2022-11-15T05:00:24;101681.41;;;7.85;67.41
64967;BME280;51710;38.732;-121.358;2022-11-15T05:02:51;101675.28;;;7.84;67.20
64967;BME280;51710;38.732;-121.358;2022-11-15T05:05:36;101676.56;;;7.79;67.43
64967;BME280;51710;38.732;-121.358;2022-11-15T05:08:03;101682.31;;;7.73;67.31
64967;BME280;51710;38.732;-121.358;2022-11-15T05:10:30;101684.47;;;7.68;67.49
64967;BME280;51710;38.732;-121.358;2022-11-15T05:12:58;101688.31;;;7.64;67.44
64967;BME280;51710;38.732;-121.358;2022-11-15T05:15:24;101688.31;;;7.64;67.47
64967;BME280;51710;38.732;-121.358;2022-11-15T05:17:58;101690.22;;;7.62;67.68
64967;BME280;51710;38.732;-121.358;2022-11-15T05:20:25;101690.84;;;7.65;67.66
64967;BME280;51710;38.732;-121.358;2022-11-15T05:22:53;101683.41;;;7.70;67.74
64967;BME280;51710;38.732;-121.358;2022-11-15T05:25:22;101686.44;;;7.77;67.81
64967;BME280;51710;38.732;-121.358;2022-11-15T05:27:48;101687.91;;;7.81;67.79
64967;BME280;51710;38.732;-121.358;2022-11-15T05:30:16;101688.13;;;7.78;67.60
64967;BME280;51710;38.732;-121.358;2022-11-15T05:32:44;101689.53;;;7.71;67.19
64967;BME280;51710;38.732;-121.358;2022-11-15T05:35:19;101680.34;;;7.64;67.33
64967;BME280;51710;38.732;-121.358;2022-11-15T05:37:47;101688.16;;;7.54;68.01
64967;BME280;51710;38.732;-121.358;2022-11-15T05:40:16;101696.91;;;7.44;67.43
64967;BME280;51710;38.732;-121.358;2022-11-15T05:42:44;101694.56;;;7.39;68.06
64967;BME280;51710;38.732;-121.358;2022-11-15T05:45:12;101700.00;;;7.38;68.20
64967;BME280;51710;38.732;-121.358;2022-11-15T05:47:40;101700.00;;;7.38;68.04
64967;BME280;51710;38.732;-121.358;2022-11-15T05:50:08;101696.16;;;7.42;68.27
64967;BME280;51710;38.732;-121.358;2022-11-15T05:52:38;101696.78;;;7.45;68.22
64967;BME280;51710;38.732;-121.358;2022-11-15T05:55:05;101692.13;;;7.49;67.89
64967;BME280;51710;38.732;-121.358;2022-11-15T05:57:33;101688.28;;;7.53;68.30
64967;BME280;51710;38.732;-121.358;2022-11-15T06:00:02;101696.97;;;7.55;68.19
64967;BME280;51710;38.732;-121.358;2022-11-15T06:02:29;101696.00;;;7.56;68.19
64967;BME280;51710;38.732;-121.358;2022-11-15T06:04:57;101687.94;;;7.57;68.41
64967;BME280;51710;38.732;-121.358;2022-11-15T06:07:25;101690.56;;;7.57;68.24
64967;BME280;51710;38.732;-121.358;2022-11-15T06:09:51;101687.31;;;7.54;68.25
64967;BME280;51710;38.732;-121.358;2022-11-15T06:12:18;101681.16;;;7.53;68.18
64967;BME280;51710;38.732;-121.358;2022-11-15T06:14:45;101679.09;;;7.46;68.24
64967;BME280;51710;38.732;-121.358;2022-11-15T06:17:13;101683.09;;;7.28;67.78
64967;BME280;51710;38.732;-121.358;2022-11-15T06:19:40;101678.84;;;7.02;68.25
64967;BME280;51710;38.732;-121.358;2022-11-15T06:22:07;101681.63;;;6.88;68.94
64967;BME280;51710;38.732;-121.358;2022-11-15T06:24:35;101679.13;;;6.73;69.27
64967;BME280;51710;38.732;-121.358;2022-11-15T06:27:02;101669.88;;;6.55;69.90
64967;BME280;51710;38.732;-121.358;2022-11-15T06:29:28;101677.72;;;6.44;70.06
64967;BME280;51710;38.732;-121.358;2022-11-15T06:31:55;101679.84;;;6.39;70.06
64967;BME280;51710;38.732;-121.358;2022-11-15T06:34:22;101678.13;;;6.38;70.52
64967;BME280;51710;38.732;-121.358;2022-11-15T06:36:49;101678.97;;;6.39;70.54
64967;BME280;51710;38.732;-121.358;2022-11-15T06:39:16;101673.47;;;6.42;70.91
64967;BME280;51710;38.732;-121.358;2022-11-15T06:41:43;101670.50;;;6.46;70.65
64967;BME280;51710;38.732;-121.358;2022-11-15T06:44:10;101677.25;;;6.50;70.88
64967;BME280;51710;38.732;-121.358;2022-11-15T06:46:38;101685.00;;;6.53;70.55
64967;BME280;51710;38.732;-121.358;2022-11-15T06:49:05;101694.84;;;6.51;70.67
64967;BME280;51710;38.732;-121.358;2022-11-15T06:51:32;101695.88;;;6.49;70.26
64967;BME280;51710;38.732;-121.358;2022-11-15T06:53:59;101700.53;;;6.45;70.61
64967;BME280;51710;38.732;-121.358;2022-11-15T06:56:26;101697.38;;;6.40;70.83
64967;BME280;51710;38.732;-121.358;2022-11-15T06:58:53;101690.81;;;6.46;71.13
64967;BME280;51710;38.732;-121.358;2022-11-15T07:01:20;101704.47;;;6.52;70.60
64967;BME280;51710;38.732;-121.358;2022-11-15T07:03:48;101703.81;;;6.61;70.85
64967;BME280;51710;38.732;-121.358;2022-11-15T07:06:15;101708.88;;;6.64;70.53
64967;BME280;51710;38.732;-121.358;2022-11-15T07:08:42;101715.16;;;6.63;70.24
64967;BME280;51710;38.732;-121.358;2022-11-15T07:11:09;101710.72;;;6.51;69.78
64967;BME280;51710;38.732;-121.358;2022-11-15T07:13:36;101708.19;;;6.37;69.78
64967;BME280;51710;38.732;-121.358;2022-11-15T07:16:09;101704.03;;;6.33;70.48
64967;BME280;51710;38.732;-121.358;2022-11-15T07:18:37;101705.31;;;6.40;70.71
64967;BME280;51710;38.732;-121.358;2022-11-15T07:21:10;101704.78;;;6.35;70.43
64967;BME280;51710;38.732;-121.358;2022-11-15T07:23:39;101701.63;;;6.30;70.24
64967;BME280;51710;38.732;-121.358;2022-11-15T07:26:06;101705.00;;;6.32;70.80
64967;BME280;51710;38.732;-121.358;2022-11-15T07:28:33;101694.22;;;6.35;70.67
64967;BME280;51710;38.732;-121.358;2022-11-15T07:31:06;101704.56;;;6.38;70.53
64967;BME280;51710;38.732;-121.358;2022-11-15T07:33:33;101700.47;;;6.34;70.60
64967;BME280;51710;38.732;-121.358;2022-11-15T07:36:04;101694.09;;;6.37;70.76
64967;BME280;51710;38.732;-121.358;2022-11-15T07:38:34;101692.09;;;6.40;70.62
64967;BME280;51710;38.732;-121.358;2022-11-15T07:41:05;101698.22;;;6.41;70.77
64967;BME280;51710;38.732;-121.358;2022-11-15T07:43:33;101702.88;;;6.37;70.22
64967;BME280;51710;38.732;-121.358;2022-11-15T07:46:06;101706.69;;;6.33;70.50
64967;BME280;51710;38.732;-121.358;2022-11-15T07:48:39;101701.84;;;6.27;70.05
64967;BME280;51710;38.732;-121.358;2022-11-15T07:51:09;101703.97;;;6.22;70.11
64967;BME280;51710;38.732;-121.358;2022-11-15T07:53:36;101713.03;;;6.18;70.23
64967;BME280;51710;38.732;-121.358;2022-11-15T07:56:06;101714.09;;;6.16;70.23
64967;BME280;51710;38.732;-121.358;2022-11-15T07:58:33;101717.06;;;6.11;70.35
64967;BME280;51710;38.732;-121.358;2022-11-15T08:01:05;101717.06;;;6.11;70.23
64967;BME280;51710;38.732;-121.358;2022-11-15T08:03:32;101723.38;;;6.09;70.77
64967;BME280;51710;38.732;-121.358;2022-11-15T08:05:59;101717.28;;;6.08;70.40
64967;BME280;51710;38.732;-121.358;2022-11-15T08:08:26;101717.16;;;6.10;70.46
64967;BME280;51710;38.732;-121.358;2022-11-15T08:10:53;101714.31;;;6.13;70.33
64967;BME280;51710;38.732;-121.358;2022-11-15T08:13:20;101725.91;;;6.10;70.04
64967;BME280;51710;38.732;-121.358;2022-11-15T08:15:51;101721.50;;;6.11;70.17
64967;BME280;51710;38.732;-121.358;2022-11-15T08:18:23;101714.91;;;6.04;70.02
64967;BME280;51710;38.732;-121.358;2022-11-15T08:20:50;101716.41;;;5.95;70.24
64967;BME280;51710;38.732;-121.358;2022-11-15T08:23:17;101719.06;;;5.81;70.29
64967;BME280;51710;38.732;-121.358;2022-11-15T08:25:44;101716.50;;;5.67;70.26
64967;BME280;51710;38.732;-121.358;2022-11-15T08:28:11;101721.03;;;5.52;70.71
64967;BME280;51710;38.732;-121.358;2022-11-15T08:30:40;101724.91;;;5.47;70.75
64967;BME280;51710;38.732;-121.358;2022-11-15T08:33:13;101732.06;;;5.45;70.98
64967;BME280;51710;38.732;-121.358;2022-11-15T08:35:41;101727.53;;;5.47;70.96
64967;BME280;51710;38.732;-121.358;2022-11-15T08:38:09;101731.97;;;5.46;71.14
64967;BME280;51710;38.732;-121.358;2022-11-15T08:40:37;101727.00;;;5.42;71.01
64967;BME280;51710;38.732;-121.358;2022-11-15T08:43:04;101731.91;;;5.34;70.97
64967;BME280;51710;38.732;-121.358;2022-11-15T08:45:33;101729.47;;;5.31;71.04
64967;BME280;51710;38.732;-121.358;2022-11-15T08:48:01;101736.00;;;5.25;71.29
64967;BME280;51710;38.732;-121.358;2022-11-15T08:50:28;101744.22;;;5.21;71.54
64967;BME280;51710;38.732;-121.358;2022-11-15T08:52:54;101741.03;;;5.16;71.45
64967;BME280;51710;38.732;-121.358;2022-11-15T08:55:21;101747.34;;;5.13;71.91
64967;BME280;51710;38.732;-121.358;2022-11-15T08:57:47;101755.38;;;5.12;71.57
64967;BME280;51710;38.732;-121.358;2022-11-15T09:00:14;101757.44;;;5.07;72.12
64967;BME280;51710;38.732;-121.358;2022-11-15T09:02:40;101763.75;;;5.04;71.83
64967;BME280;51710;38.732;-121.358;2022-11-15T09:05:07;101766.59;;;5.01;71.73
64967;BME280;51710;38.732;-121.358;2022-11-15T09:07:34;101758.69;;;5.01;71.79
64967;BME280;51710;38.732;-121.358;2022-11-15T09:10:01;101755.94;;;5.03;71.57
64967;BME280;51710;38.732;-121.358;2022-11-15T09:12:27;101749.72;;;5.04;72.20
64967;BME280;51710;38.732;-121.358;2022-11-15T09:14:54;101748.56;;;5.08;72.26
64967;BME280;51710;38.732;-121.358;2022-11-15T09:17:20;101760.66;;;5.12;72.50
64967;BME280;51710;38.732;-121.358;2022-11-15T09:19:46;101753.47;;;5.14;72.23
64967;BME280;51710;38.732;-121.358;2022-11-15T09:22:13;101751.69;;;5.14;72.35
64967;BME280;51710;38.732;-121.358;2022-11-15T09:24:39;101755.81;;;5.18;72.25
64967;BME280;51710;38.732;-121.358;2022-11-15T09:27:06;101751.38;;;5.19;72.17
64967;BME280;51710;38.732;-121.358;2022-11-15T09:29:32;101755.59;;;5.21;72.29
64967;BME280;51710;38.732;-121.358;2022-11-15T09:32:01;101757.44;;;5.21;72.45
64967;BME280;51710;38.732;-121.358;2022-11-15T09:34:27;101763.63;;;5.20;72.24
64967;BME280;51710;38.732;-121.358;2022-11-15T09:36:54;101766.38;;;5.18;72.23
64967;BME280;51710;38.732;-121.358;2022-11-15T09:39:21;101756.00;;;5.15;72.25
64967;BME280;51710;38.732;-121.358;2022-11-15T09:45:04;101761.41;;;5.14;72.14
64967;BME280;51710;38.732;-121.358;2022-11-15T09:50:50;101754.34;;;5.14;72.17
64967;BME280;51710;38.732;-121.358;2022-11-15T09:53:55;101762.31;;;5.13;71.81
64967;BME280;51710;38.732;-121.358;2022-11-15T09:56:32;101761.66;;;5.09;71.83
64967;BME280;51710;38.732;-121.358;2022-11-15T10:04:48;101760.84;;;5.09;71.92
64967;BME280;51710;38.732;-121.358;2022-11-15T10:10:00;101758.22;;;4.95;72.35
64967;BME280;51710;38.732;-121.358;2022-11-15T10:12:30;101756.91;;;4.88;72.38
64967;BME280;51710;38.732;-121.358;2022-11-15T10:15:16;101755.41;;;4.84;72.53
64967;BME280;51710;38.732;-121.358;2022-11-15T10:20:50;101758.59;;;4.89;72.83
64967;BME280;51710;38.732;-121.358;2022-11-15T10:23:20;101753.78;;;4.95;72.80
64967;BME280;51710;38.732;-121.358;2022-11-15T10:25:48;101755.72;;;5.06;73.27
64967;BME280;51710;38.732;-121.358;2022-11-15T10:28:25;101752.31;;;5.18;73.40
64967;BME280;51710;38.732;-121.358;2022-11-15T10:30:55;101757.13;;;5.25;72.98
64967;BME280;51710;38.732;-121.358;2022-11-15T10:41:17;101756.81;;;5.44;72.75
64967;BME280;51710;38.732;-121.358;2022-11-15T10:43:44;101756.16;;;5.40;72.72
64967;BME280;51710;38.732;-121.358;2022-11-15T10:46:22;101753.03;;;5.34;72.62
64967;BME280;51710;38.732;-121.358;2022-11-15T10:48:49;101755.78;;;5.32;72.58
64967;BME280;51710;38.732;-121.358;2022-11-15T10:51:27;101764.75;;;5.30;72.09
64967;BME280;51710;38.732;-121.358;2022-11-15T10:53:59;101764.00;;;5.28;72.34
64967;BME280;51710;38.732;-121.358;2022-11-15T10:56:27;101760.81;;;5.23;72.31
64967;BME280;51710;38.732;-121.358;2022-11-15T10:58:56;101767.34;;;5.17;72.23
64967;BME280;51710;38.732;-121.358;2022-11-15T11:01:25;101779.13;;;4.98;72.27
64967;BME280;51710;38.732;-121.358;2022-11-15T11:04:07;101774.97;;;4.80;72.75
64967;BME280;51710;38.732;-121.358;2022-11-15T11:09:34;101781.97;;;4.52;73.74
64967;BME280;51710;38.732;-121.358;2022-11-15T11:12:02;101783.06;;;4.48;73.32
64967;BME280;51710;38.732;-121.358;2022-11-15T11:14:35;101784.38;;;4.41;73.33
64967;BME280;51710;38.732;-121.358;2022-11-15T11:25:19;101793.25;;;4.40;74.04
64967;BME280;51710;38.732;-121.358;2022-11-15T11:30:42;101786.47;;;4.50;73.91
64967;BME280;51710;38.732;-121.358;2022-11-15T11:42:37;101794.03;;;4.56;73.59
64967;BME280;51710;38.732;-121.358;2022-11-15T11:45:39;101797.59;;;4.55;73.48
64967;BME280;51710;38.732;-121.358;2022-11-15T11:48:41;101793.53;;;4.50;73.38
64967;BME280;51710;38.732;-121.358;2022-11-15T11:51:24;101790.22;;;4.46;73.16
64967;BME280;51710;38.732;-121.358;2022-11-15T11:54:09;101793.72;;;4.47;73.32
64967;BME280;51710;38.732;-121.358;2022-11-15T11:56:41;101793.59;;;4.34;73.02
64967;BME280;51710;38.732;-121.358;2022-11-15T12:02:21;101794.22;;;3.94;73.72
64967;BME280;51710;38.732;-121.358;2022-11-15T12:04:54;101798.16;;;3.87;73.93
64967;BME280;51710;38.732;-121.358;2022-11-15T12:07:27;101796.38;;;3.88;74.35
64967;BME280;51710;38.732;-121.358;2022-11-15T12:10:28;101804.63;;;3.97;74.42
64967;BME280;51710;38.732;-121.358;2022-11-15T12:15:43;101794.56;;;4.04;73.96
64967;BME280;51710;38.732;-121.358;2022-11-15T12:18:15;101798.63;;;4.09;74.37
64967;BME280;51710;38.732;-121.358;2022-11-15T12:20:57;101790.44;;;4.14;74.49
64967;BME280;51710;38.732;-121.358;2022-11-15T12:23:40;101797.06;;;4.21;74.44
64967;BME280;51710;38.732;-121.358;2022-11-15T12:26:33;101801.31;;;4.23;74.21
64967;BME280;51710;38.732;-121.358;2022-11-15T12:32:28;101817.22;;;4.22;74.01
64967;BME280;51710;38.732;-121.358;2022-11-15T12:34:56;101819.00;;;4.21;73.45
64967;BME280;51710;38.732;-121.358;2022-11-15T12:42:56;101820.06;;;4.03;73.30
64967;BME280;51710;38.732;-121.358;2022-11-15T12:45:30;101830.28;;;3.94;73.01
64967;BME280;51710;38.732;-121.358;2022-11-15T12:58:58;101831.56;;;3.40;74.46
64967;BME280;51710;38.732;-121.358;2022-11-15T13:06:48;101820.34;;;3.21;73.79
64967;BME280;51710;38.732;-121.358;2022-11-15T13:19:55;101836.78;;;3.26;74.69
64967;BME280;51710;38.732;-121.358;2022-11-15T13:22:25;101833.88;;;3.30;75.24
64967;BME280;51710;38.732;-121.358;2022-11-15T13:25:46;101838.66;;;3.39;75.60
64967;BME280;51710;38.732;-121.358;2022-11-15T13:33:22;101839.47;;;3.40;74.31
64967;BME280;51710;38.732;-121.358;2022-11-15T13:35:55;101835.06;;;3.40;74.58
64967;BME280;51710;38.732;-121.358;2022-11-15T13:38:29;101838.66;;;3.39;74.85
64967;BME280;51710;38.732;-121.358;2022-11-15T13:40:58;101839.31;;;3.43;74.93
64967;BME280;51710;38.732;-121.358;2022-11-15T13:43:27;101838.16;;;3.49;74.57
64967;BME280;51710;38.732;-121.358;2022-11-15T13:46:21;101841.47;;;3.52;74.59
64967;BME280;51710;38.732;-121.358;2022-11-15T13:48:54;101838.66;;;3.39;74.10
64967;BME280;51710;38.732;-121.358;2022-11-15T13:51:33;101841.88;;;3.29;74.52
64967;BME280;51710;38.732;-121.358;2022-11-15T13:54:24;101841.69;;;3.32;74.49
64967;BME280;51710;38.732;-121.358;2022-11-15T13:56:57;101835.41;;;3.34;74.44
64967;BME280;51710;38.732;-121.358;2022-11-15T13:59:31;101848.50;;;3.36;74.74
64967;BME280;51710;38.732;-121.358;2022-11-15T14:02:11;101847.38;;;3.40;74.02
64967;BME280;51710;38.732;-121.358;2022-11-15T14:04:45;101855.44;;;3.37;74.33
64967;BME280;51710;38.732;-121.358;2022-11-15T14:07:21;101846.78;;;3.35;74.01
64967;BME280;51710;38.732;-121.358;2022-11-15T14:09:48;101852.03;;;3.35;74.09
64967;BME280;51710;38.732;-121.358;2022-11-15T14:14:51;101844.06;;;3.36;74.08
64967;BME280;51710;38.732;-121.358;2022-11-15T14:17:33;101844.72;;;3.40;73.98
64967;BME280;51710;38.732;-121.358;2022-11-15T14:20:00;101839.31;;;3.43;74.13
64967;BME280;51710;38.732;-121.358;2022-11-15T14:22:29;101845.41;;;3.43;73.54
64967;BME280;51710;38.732;-121.358;2022-11-15T14:25:20;101837.78;;;3.39;73.90
64967;BME280;51710;38.732;-121.358;2022-11-15T14:28:16;101843.13;;;3.37;73.52
64967;BME280;51710;38.732;-121.358;2022-11-15T14:30:56;101844.81;;;3.23;73.72
64967;BME280;51710;38.732;-121.358;2022-11-15T14:33:34;101846.41;;;3.10;73.75
64967;BME280;51710;38.732;-121.358;2022-11-15T14:36:13;101840.44;;;2.91;73.84
64967;BME280;51710;38.732;-121.358;2022-11-15T14:38:40;101849.50;;;2.85;74.57
64967;BME280;51710;38.732;-121.358;2022-11-15T14:41:21;101851.19;;;2.86;74.42
64967;BME280;51710;38.732;-121.358;2022-11-15T14:43:49;101849.25;;;2.90;74.81
64967;BME280;51710;38.732;-121.358;2022-11-15T14:46:15;101845.34;;;2.97;75.13
64967;BME280;51710;38.732;-121.358;2022-11-15T14:48:42;101849.84;;;2.95;74.84
64967;BME280;51710;38.732;-121.358;2022-11-15T14:51:18;101859.41;;;2.80;74.33
64967;BME280;51710;38.732;-121.358;2022-11-15T14:53:45;101859.34;;;2.65;74.44
64967;BME280;51710;38.732;-121.358;2022-11-15T14:56:13;101856.25;;;2.57;74.81